Time;durP1;ratioP1;P1;durP2;ratioP2;P2;SDS_P1;SDS_P2;PMS_P1;PMS_P2;Temp;Humidity;BMP_temperature;BMP_pressure;BME280_temperature;BME280_humidity;BME280_pressure;Samples;Min_cycle;Max_cycle;Signal;HPM_P1;HPM_P2
2022/09/08 00:00:52;;;;;;;;;0.00;0.00;;;;;17.73;73.10;100144.88;5018539;28;45413;-74
2022/09/08 00:03:21;;;;;;;;;1.00;1.00;;;;;17.71;73.10;100141.44;5029554;28;45484;-74
2022/09/08 00:05:52;;;;;;;;;0.75;0.75;;;;;17.73;73.29;100139.53;5016719;28;45603;-74
2022/09/08 00:08:20;;;;;;;;;1.00;1.00;;;;;17.73;73.42;100139.53;5015370;28;46280;-74
2022/09/08 00:10:47;;;;;;;;;0.00;0.00;;;;;17.76;73.43;100144.72;5015431;28;45497;-74
2022/09/08 00:13:13;;;;;;;;;1.00;1.00;;;;;17.75;73.24;100135.00;5036370;28;45423;-74
2022/09/08 00:15:39;;;;;;;;;1.00;1.00;;;;;17.75;73.26;100137.66;5036735;28;45376;-74
2022/09/08 00:18:06;;;;;;;;;1.00;0.00;;;;;17.75;73.12;100137.66;5036154;28;46157;-75
2022/09/08 00:20:32;;;;;;;;;1.00;1.00;;;;;17.80;73.54;100135.56;5036497;28;45462;-76
2022/09/08 00:22:57;;;;;;;;;0.00;0.00;;;;;17.74;72.86;100149.28;5036544;28;45358;-74
2022/09/08 00:25:23;;;;;;;;;0.00;0.00;;;;;17.83;73.18;100159.47;5017822;28;45535;-74
2022/09/08 00:27:48;;;;;;;;;0.75;0.75;;;;;17.83;72.76;100151.44;5036111;28;46556;-74
2022/09/08 00:30:14;;;;;;;;;2.00;2.00;;;;;17.87;72.67;100157.47;5036227;28;45357;-76
2022/09/08 00:32:39;;;;;;;;;1.00;1.00;;;;;17.87;72.42;100149.44;5036288;28;45368;-75
2022/09/08 00:35:07;;;;;;;;;0.25;0.25;;;;;17.90;72.46;100150.19;5036075;28;45307;-76
2022/09/08 00:37:33;;;;;;;;;1.00;0.00;;;;;17.86;72.20;100145.91;5017805;28;48172;-74
2022/09/08 00:39:58;;;;;;;;;1.00;1.00;;;;;17.82;72.48;100148.84;5035327;28;45539;-74
2022/09/08 00:42:24;;;;;;;;;0.25;0.25;;;;;17.75;72.84;100141.19;5035714;28;45411;-75
2022/09/08 00:44:49;;;;;;;;;2.00;0.25;;;;;17.70;72.77;100145.94;5036082;28;45408;-75
2022/09/08 00:47:21;;;;;;;;;1.25;1.25;;;;;17.68;72.72;100141.63;5017865;28;47207;-73
2022/09/08 00:49:52;;;;;;;;;0.00;0.00;;;;;17.63;73.57;100128.53;5036234;28;45399;-73
2022/09/08 00:52:18;;;;;;;;;0.00;0.00;;;;;17.61;72.67;100127.72;5035771;28;45288;-74
2022/09/08 00:54:45;;;;;;;;;1.00;1.00;;;;;17.53;72.52;100127.31;5035722;28;45554;-75
2022/09/08 00:57:10;;;;;;;;;0.25;0.25;;;;;17.43;73.25;100134.97;5035266;28;46788;-74
2022/09/08 00:59:36;;;;;;;;;0.00;0.00;;;;;17.33;73.78;100129.28;5036111;28;45434;-75
2022/09/08 01:02:17;;;;;;;;;4.00;2.00;;;;;17.29;74.41;100137.53;5017977;28;45423;-74
2022/09/08 01:04:42;;;;;;;;;0.00;0.00;;;;;17.26;74.65;100146.56;5035804;28;45438;-75
2022/09/08 01:12:57;;;;;;;;;0.50;0.50;;;;;17.20;74.83;100142.44;5035482;28;45409;-74
2022/09/08 01:15:29;;;;;;;;;1.00;1.00;;;;;17.16;74.98;100138.22;5035498;28;45611;-74
2022/09/08 01:17:55;;;;;;;;;0.50;0.50;;;;;17.11;74.66;100142.94;5035337;28;46159;-75
2022/09/08 01:20:31;;;;;;;;;1.00;1.00;;;;;17.04;74.96;100146.88;5035662;28;45483;-74
2022/09/08 01:23:41;;;;;;;;;1.00;0.50;;;;;17.00;75.13;100150.66;5035307;28;45555;-72
2022/09/08 01:26:13;;;;;;;;;1.50;0.50;;;;;16.96;75.78;100151.75;5034886;28;45613;-72
2022/09/08 01:28:48;;;;;;;;;1.75;1.00;;;;;16.96;75.85;100151.75;5034888;28;45437;-74
2022/09/08 01:31:15;;;;;;;;;0.50;0.50;;;;;16.98;76.02;100155.22;5035247;28;45611;-75
2022/09/08 01:33:41;;;;;;;;;0.00;0.00;;;;;16.86;75.77;100138.91;5035644;28;45360;-74
2022/09/08 01:36:10;;;;;;;;;0.00;0.00;;;;;16.98;76.10;100163.22;5035347;28;45487;-74
2022/09/08 01:38:36;;;;;;;;;1.00;0.00;;;;;16.95;76.00;100166.06;5034686;28;45480;-74
2022/09/08 01:41:01;;;;;;;;;0.00;0.00;;;;;16.92;75.89;100159.06;5034701;28;45495;-75
2022/09/08 01:43:26;;;;;;;;;1.00;1.00;;;;;16.89;76.05;100174.41;5035300;28;45436;-75
2022/09/08 01:45:56;;;;;;;;;1.00;1.00;;;;;16.89;76.30;100171.72;5035618;28;45444;-73
2022/09/08 01:48:21;;;;;;;;;0.75;0.75;;;;;16.87;76.38;100164.66;5017252;28;48458;-75
2022/09/08 01:50:46;;;;;;;;;1.00;1.00;;;;;16.83;76.03;100163.06;5033989;28;45337;-73
2022/09/08 01:53:12;;;;;;;;;1.00;1.00;;;;;16.89;76.15;100174.41;5034563;28;45596;-74
2022/09/08 01:55:37;;;;;;;;;1.50;0.00;;;;;16.90;76.24;100178.78;5034735;28;45396;-75
2022/09/08 01:58:03;;;;;;;;;1.00;1.00;;;;;16.93;75.92;100183.94;5035179;28;46393;-74
2022/09/08 02:00:28;;;;;;;;;1.00;1.00;;;;;16.94;76.20;100183.00;5035078;28;45352;-74
2022/09/08 02:02:54;;;;;;;;;2.00;0.75;;;;;16.92;76.37;100187.59;5034860;28;45293;-75
2022/09/08 02:05:19;;;;;;;;;0.00;0.00;;;;;16.93;76.29;100183.94;5034743;28;45587;-74
2022/09/08 02:07:44;;;;;;;;;1.25;1.25;;;;;16.93;76.41;100174.16;5039524;28;46217;-74
2022/09/08 02:10:10;;;;;;;;;1.00;1.00;;;;;16.93;76.36;100182.16;5035026;28;45352;-74
2022/09/08 02:12:35;;;;;;;;;1.75;1.00;;;;;16.89;77.04;100182.41;5033891;28;45909;-74
2022/09/08 02:15:00;;;;;;;;;0.25;0.25;;;;;16.83;76.65;100171.06;5035012;28;45528;-74
2022/09/08 02:17:30;;;;;;;;;0.25;0.25;;;;;16.82;76.83;100174.69;5034081;28;45477;-75
2022/09/08 02:19:55;;;;;;;;;0.00;0.00;;;;;16.83;76.96;100189.75;5034862;28;45407;-73
2022/09/08 02:22:21;;;;;;;;;1.25;1.00;;;;;16.83;76.99;100187.06;5034219;28;45357;-75
2022/09/08 02:24:46;;;;;;;;;0.50;0.50;;;;;16.78;77.17;100186.47;5034519;28;45345;-73
2022/09/08 02:27:12;;;;;;;;;1.00;1.00;;;;;16.78;77.10;100178.47;5015941;28;46031;-74
2022/09/08 02:29:37;;;;;;;;;0.25;0.25;;;;;16.81;77.08;100172.09;5034255;28;45345;-74
2022/09/08 02:32:03;;;;;;;;;0.50;0.50;;;;;16.77;77.21;100168.72;5034329;28;45476;-74
2022/09/08 02:34:28;;;;;;;;;1.00;1.00;;;;;16.80;77.15;100171.22;5033929;28;45372;-74
2022/09/08 02:36:54;;;;;;;;;1.00;1.00;;;;;16.74;77.41;100166.19;5015945;28;47114;-74
2022/09/08 02:39:20;;;;;;;;;1.75;0.50;;;;;16.70;77.05;100159.28;5034324;28;45425;-74
2022/09/08 02:41:47;;;;;;;;;0.00;0.00;;;;;16.70;77.09;100161.97;5033874;28;45420;-74
2022/09/08 02:44:13;;;;;;;;;0.00;0.00;;;;;16.68;77.40;100167.38;5034801;28;45395;-73
2022/09/08 02:46:39;;;;;;;;;0.50;0.50;;;;;16.62;77.22;100161.50;5033692;28;46247;-74
2022/09/08 02:49:05;;;;;;;;;0.50;0.50;;;;;16.60;77.56;100158.91;5034151;28;45419;-75
2022/09/08 02:51:32;;;;;;;;;1.75;1.75;;;;;16.59;77.46;100164.34;5033378;28;45438;-74
2022/09/08 02:53:57;;;;;;;;;1.00;1.00;;;;;16.57;77.53;100159.09;5033742;28;45457;-74
2022/09/08 02:56:23;;;;;;;;;2.50;1.00;;;;;16.51;77.51;100148.72;5015493;28;46510;-73
2022/09/08 02:58:49;;;;;;;;;1.00;1.00;;;;;16.45;77.83;100141.91;5033543;28;45606;-74
2022/09/08 03:01:15;;;;;;;;;1.00;1.00;;;;;16.46;77.90;100146.31;5032861;28;45473;-75
2022/09/08 03:03:41;;;;;;;;;1.00;1.00;;;;;16.38;78.52;100144.97;5033713;28;45369;-74
2022/09/08 03:06:07;;;;;;;;;1.00;1.00;;;;;16.36;78.69;100133.50;5015250;28;47551;-74
2022/09/08 03:08:34;;;;;;;;;1.00;1.00;;;;;16.37;78.60;100145.88;5034211;28;45615;-75
2022/09/08 03:11:01;;;;;;;;;1.50;1.00;;;;;16.39;78.61;100134.22;5033595;28;45390;-73
2022/09/08 03:13:27;;;;;;;;;1.00;1.00;;;;;16.33;78.90;100130.03;5033852;28;45349;-74
2022/09/08 03:15:52;;;;;;;;;2.25;2.00;;;;;16.31;78.63;100125.75;5033230;28;45451;-75
2022/09/08 03:18:18;;;;;;;;;3.00;1.75;;;;;16.25;78.99;100131.41;5033802;28;45609;-74
2022/09/08 03:20:45;;;;;;;;;1.00;1.00;;;;;16.24;79.07;100125.19;5033475;28;45375;-73
2022/09/08 03:23:19;;;;;;;;;0.50;0.50;;;;;16.24;79.08;100124.31;5033847;28;45451;-73
2022/09/08 03:25:46;;;;;;;;;1.75;1.00;;;;;16.30;78.82;100124.03;5031511;28;46370;-73
2022/09/08 03:28:18;;;;;;;;;1.00;1.00;;;;;16.27;79.11;100121.50;5011839;28;45470;-74
2022/09/08 03:30:44;;;;;;;;;1.50;1.00;;;;;16.26;79.15;100122.44;5013409;28;45627;-76
2022/09/08 03:33:09;;;;;;;;;1.00;1.00;;;;;16.28;79.18;100117.91;5013813;28;45403;-74
2022/09/08 03:35:35;;;;;;;;;2.00;1.00;;;;;16.10;79.19;100096.56;5013142;28;45479;-74
2022/09/08 03:38:00;;;;;;;;;0.75;0.50;;;;;16.22;79.30;100113.75;5013490;28;45428;-75
2022/09/08 03:40:26;;;;;;;;;1.00;1.00;;;;;16.22;79.45;100115.56;5013559;28;45366;-73
2022/09/08 03:42:52;;;;;;;;;2.00;1.00;;;;;16.21;79.72;100112.00;5013729;28;45401;-74
2022/09/08 03:45:18;;;;;;;;;2.50;2.00;;;;;16.14;79.93;100114.13;5012187;28;47299;-73
2022/09/08 03:47:44;;;;;;;;;2.00;2.00;;;;;16.22;79.97;100111.06;5013129;28;45572;-75
2022/09/08 03:50:11;;;;;;;;;1.25;1.25;;;;;16.20;79.52;100112.97;5013213;28;45347;-74
2022/09/08 03:52:37;;;;;;;;;2.75;2.75;;;;;16.18;79.47;100104.16;5013693;28;45508;-73
2022/09/08 03:55:04;;;;;;;;;3.25;2.50;;;;;16.23;79.48;100110.16;5011987;28;47199;-74
2022/09/08 03:57:31;;;;;;;;;2.00;2.00;;;;;16.27;79.42;100118.84;5013291;28;45492;-74
2022/09/08 03:59:58;;;;;;;;;2.00;2.00;;;;;16.28;79.21;100110.75;5012976;28;45499;-74
2022/09/08 04:02:25;;;;;;;;;2.75;2.75;;;;;16.25;79.19;100102.06;5013727;28;45408;-73
2022/09/08 04:04:53;;;;;;;;;1.25;1.25;;;;;16.28;79.35;100115.25;4993251;28;48608;-74
2022/09/08 04:07:20;;;;;;;;;3.00;2.00;;;;;16.31;79.33;100112.41;4994065;28;45481;-73
2022/09/08 04:09:47;;;;;;;;;2.25;2.25;;;;;16.41;79.16;100118.97;4993755;28;45397;-74
2022/09/08 04:12:12;;;;;;;;;1.50;1.50;;;;;16.42;79.02;100117.19;4993479;28;45507;-74
2022/09/08 04:14:39;;;;;;;;;5.25;3.50;;;;;16.42;78.88;100122.53;4996431;28;46007;-75
2022/09/08 04:17:04;;;;;;;;;3.50;3.00;;;;;16.46;78.82;100118.78;4996629;28;45356;-74
2022/09/08 04:19:30;;;;;;;;;2.00;2.00;;;;;16.45;78.88;100117.88;5004961;28;45483;-74
2022/09/08 04:21:55;;;;;;;;;2.00;2.00;;;;;16.49;78.62;100123.94;5015068;28;45337;-74
2022/09/08 04:24:21;;;;;;;;;2.00;2.00;;;;;16.53;78.63;100117.50;5015293;28;46070;-74
2022/09/08 04:26:46;;;;;;;;;2.50;2.50;;;;;16.49;78.63;100116.81;5016415;28;45387;-74
2022/09/08 04:29:12;;;;;;;;;3.75;2.00;;;;;16.49;78.59;100114.13;5030804;28;45466;-74
2022/09/08 04:31:38;;;;;;;;;2.75;1.50;;;;;16.49;78.82;100105.28;5036314;28;45399;-74
2022/09/08 04:34:04;;;;;;;;;4.00;3.00;;;;;16.51;78.64;100114.91;5036320;28;45520;-74
2022/09/08 04:36:30;;;;;;;;;2.50;2.50;;;;;16.56;78.38;100108.47;5036792;28;45499;-74
2022/09/08 04:38:58;;;;;;;;;2.25;2.25;;;;;16.55;78.42;100101.41;5036415;28;45523;-73
2022/09/08 04:41:25;;;;;;;;;2.75;2.75;;;;;16.51;78.38;100106.91;5018169;28;45550;-74
2022/09/08 04:43:51;;;;;;;;;3.50;2.00;;;;;16.52;78.03;100105.97;5035924;28;46130;-74
2022/09/08 04:46:17;;;;;;;;;2.50;1.00;;;;;16.52;78.30;100103.31;5035890;28;45579;-75
2022/09/08 04:48:44;;;;;;;;;2.50;2.00;;;;;16.58;77.99;100101.25;5036227;28;45602;-76
2022/09/08 04:51:12;;;;;;;;;2.00;2.00;;;;;16.67;78.09;100101.63;5035711;28;45453;-74
2022/09/08 04:53:38;;;;;;;;;2.00;1.75;;;;;16.68;77.80;100103.34;5017808;28;46858;-74
2022/09/08 04:56:06;;;;;;;;;2.00;2.00;;;;;16.64;77.66;100098.25;5035339;28;45614;-75
2022/09/08 04:58:33;;;;;;;;;3.00;2.00;;;;;16.62;77.95;100102.81;5017820;28;45601;-74
2022/09/08 05:01:14;;;;;;;;;1.75;1.75;;;;;16.60;77.90;100099.38;5035585;28;45569;-74
2022/09/08 05:03:40;;;;;;;;;2.75;1.00;;;;;16.66;77.80;100104.38;5025787;28;45698;-75
2022/09/08 05:06:09;;;;;;;;;2.00;2.00;;;;;16.73;77.91;100099.56;5016700;28;45615;-74
2022/09/08 05:08:35;;;;;;;;;1.50;1.00;;;;;16.77;77.68;100098.47;5016504;28;45419;-75
2022/09/08 05:11:01;;;;;;;;;3.75;1.75;;;;;16.76;77.42;100097.63;5017520;28;45375;-73
2022/09/08 05:13:26;;;;;;;;;2.75;2.75;;;;;16.81;77.31;100114.25;5036237;28;46236;-74
2022/09/08 05:15:52;;;;;;;;;2.00;2.00;;;;;16.85;77.18;100109.59;5035408;28;45486;-75
2022/09/08 05:18:17;;;;;;;;;1.25;1.25;;;;;16.87;77.22;100103.28;5036034;28;45364;-74
2022/09/08 05:20:43;;;;;;;;;4.00;4.00;;;;;16.87;76.74;100103.28;5036190;28;45477;-76
2022/09/08 05:23:08;;;;;;;;;7.00;3.00;;;;;16.85;76.95;100099.81;5035318;28;45419;-74
2022/09/08 05:25:34;;;;;;;;;1.50;1.50;;;;;16.80;77.02;100109.84;5034325;28;45380;-75
2022/09/08 05:27:59;;;;;;;;;1.00;1.00;;;;;16.82;76.74;100109.75;5035011;28;45363;-74
2022/09/08 05:30:25;;;;;;;;;4.75;2.75;;;;;16.82;76.90;100115.09;5035189;28;45478;-74
2022/09/08 05:32:51;;;;;;;;;2.00;2.00;;;;;16.79;77.50;100116.16;5035247;28;45353;-75
2022/09/08 05:35:16;;;;;;;;;3.00;2.00;;;;;16.83;76.97;100117.69;5035558;28;45411;-75
2022/09/08 05:37:41;;;;;;;;;2.00;2.00;;;;;16.85;77.42;100118.50;5035461;28;45956;-75
2022/09/08 05:40:07;;;;;;;;;1.00;1.00;;;;;16.84;76.97;100111.41;5035342;28;45423;-74
2022/09/08 05:42:32;;;;;;;;;1.00;1.00;;;;;16.90;76.89;100117.38;5034706;28;45383;-74
2022/09/08 05:44:58;;;;;;;;;3.75;1.25;;;;;16.92;76.96;100120.84;5034760;28;45440;-74
2022/09/08 05:47:23;;;;;;;;;4.00;2.00;;;;;16.91;76.48;100121.78;5035171;28;45372;-74
2022/09/08 05:49:48;;;;;;;;;2.25;2.25;;;;;16.91;76.41;100121.78;5035811;28;45514;-74
2022/09/08 05:52:14;;;;;;;;;2.75;1.50;;;;;16.92;76.62;100123.53;5016847;28;46409;-74
2022/09/08 05:54:39;;;;;;;;;6.00;2.50;;;;;16.91;76.85;100119.97;5034955;28;45496;-75
2022/09/08 05:57:05;;;;;;;;;3.00;2.00;;;;;16.92;76.65;100118.19;5034840;28;45513;-75
2022/09/08 05:59:30;;;;;;;;;3.00;3.00;;;;;17.03;76.52;100124.66;5034269;28;45460;-75
2022/09/08 06:01:56;;;;;;;;;2.00;2.00;;;;;17.06;76.04;100123.63;5034769;28;45467;-75
2022/09/08 06:04:21;;;;;;;;;2.00;2.00;;;;;17.08;75.43;100112.88;5035582;28;45419;-74
2022/09/08 06:06:47;;;;;;;;;2.75;2.00;;;;;17.10;75.80;100122.53;5034934;28;45384;-74
2022/09/08 06:09:15;;;;;;;;;3.00;1.75;;;;;17.16;75.66;100124.00;5016841;28;45339;-75
2022/09/08 06:11:42;;;;;;;;;3.25;1.00;;;;;17.20;75.28;100131.78;5034161;28;45354;-75
2022/09/08 06:14:10;;;;;;;;;3.25;2.00;;;;;17.19;75.11;100121.16;5034037;28;45384;-75
2022/09/08 06:16:35;;;;;;;;;4.25;3.50;;;;;17.26;75.13;100129.69;5035016;28;45419;-74
2022/09/08 06:19:01;;;;;;;;;4.00;2.75;;;;;17.35;74.69;100124.69;5034943;28;45402;-75
2022/09/08 06:21:29;;;;;;;;;3.00;1.75;;;;;17.39;74.69;100128.09;5034195;28;46229;-75
2022/09/08 06:24:01;;;;;;;;;3.75;2.00;;;;;17.48;74.63;100132.91;5034440;28;45478;-75
2022/09/08 06:26:39;;;;;;;;;3.00;2.50;;;;;17.54;74.11;100127.22;5033886;28;45473;-73
2022/09/08 06:29:24;;;;;;;;;4.00;3.00;;;;;17.60;73.36;100134.03;5034004;28;45573;-75
2022/09/08 06:32:17;;;;;;;;;4.00;3.00;;;;;17.72;73.22;100122.66;5034626;28;45337;-75
2022/09/08 06:34:49;;;;;;;;;3.50;2.50;;;;;18.80;70.17;100120.81;5033859;28;45486;-75
2022/09/08 06:37:29;;;;;;;;;2.00;2.00;;;;;19.31;67.55;100126.59;5033714;28;45495;-75
2022/09/08 06:40:03;;;;;;;;;3.00;2.75;;;;;19.91;65.89;100119.19;5034430;28;45395;-74
2022/09/08 06:42:49;;;;;;;;;2.00;2.00;;;;;20.11;64.67;100130.41;5032842;28;46244;-76
2022/09/08 06:45:28;;;;;;;;;4.25;2.50;;;;;20.45;63.31;100117.41;5034212;28;45313;-74
2022/09/08 06:48:21;;;;;;;;;2.00;2.00;;;;;20.78;62.29;100116.91;5034325;28;45474;-75
2022/09/08 06:51:21;;;;;;;;;5.50;2.75;;;;;20.71;61.93;100105.75;5033532;28;45305;-74
2022/09/08 06:54:05;;;;;;;;;4.50;2.50;;;;;20.63;62.00;100116.13;4989104;28;45577;-75
2022/09/08 06:56:47;;;;;;;;;2.00;2.00;;;;;20.58;62.25;100118.28;5032815;28;45466;-74
2022/09/08 06:59:37;;;;;;;;;2.00;1.50;;;;;20.51;62.65;100114.28;5033615;28;45417;-75
2022/09/08 07:02:48;;;;;;;;;2.00;1.00;;;;;20.52;62.65;100118.69;5033464;28;45437;-75
2022/09/08 07:05:26;;;;;;;;;4.25;4.25;;;;;20.87;61.22;100113.59;5015708;28;46313;-76
2022/09/08 07:07:52;;;;;;;;;4.25;2.50;;;;;20.77;61.01;100118.75;5033888;28;45355;-74
2022/09/08 07:10:27;;;;;;;;;5.00;3.00;;;;;20.90;61.20;100107.13;5033469;28;45384;-75
2022/09/08 07:13:11;;;;;;;;;3.50;2.75;;;;;20.88;60.58;100119.84;5015239;28;45596;-73
2022/09/08 07:15:53;;;;;;;;;6.00;3.00;;;;;20.86;60.86;100119.06;5033298;28;45396;-76
2022/09/08 07:18:24;;;;;;;;;3.25;3.25;;;;;20.96;60.27;100120.13;5033549;28;45417;-75
2022/09/08 07:21:03;;;;;;;;;7.25;5.00;;;;;20.98;60.24;100117.34;5033484;28;45550;-75
2022/09/08 07:23:35;;;;;;;;;3.00;3.00;;;;;20.94;61.04;100119.41;5033474;28;45352;-75
2022/09/08 07:26:11;;;;;;;;;3.00;3.00;;;;;20.80;60.97;100116.81;5032633;28;46289;-73
2022/09/08 07:28:44;;;;;;;;;2.75;2.75;;;;;20.70;61.71;100119.28;5033377;28;45375;-74
2022/09/08 07:31:21;;;;;;;;;5.75;3.25;;;;;20.53;61.15;100118.59;5033835;28;45454;-75
2022/09/08 07:33:52;;;;;;;;;2.75;2.75;;;;;20.30;62.27;100119.28;5033663;28;45455;-74
2022/09/08 07:36:38;;;;;;;;;3.00;3.00;;;;;20.15;62.79;100122.06;5032958;28;46034;-75
2022/09/08 07:39:41;;;;;;;;;4.00;3.00;;;;;20.06;63.18;100115.47;5033538;28;45530;-74
2022/09/08 07:42:12;;;;;;;;;3.75;3.75;;;;;20.03;63.32;100115.69;5032983;28;45447;-74
2022/09/08 07:44:38;;;;;;;;;2.25;2.25;;;;;19.89;63.04;100115.75;5032998;28;45345;-74
2022/09/08 07:47:31;;;;;;;;;3.00;3.00;;;;;19.80;63.55;100124.38;5033394;28;45503;-74
2022/09/08 07:50:17;;;;;;;;;4.75;2.00;;;;;19.92;63.93;100125.41;5036844;28;45336;-75
2022/09/08 07:53:12;;;;;;;;;2.00;2.00;;;;;20.13;63.12;100131.16;5036689;28;45510;-75
2022/09/08 07:55:41;;;;;;;;;4.25;4.00;;;;;19.97;62.81;100126.81;5035686;28;45399;-75
2022/09/08 07:58:36;;;;;;;;;2.50;2.50;;;;;19.92;63.03;100120.91;5037181;28;46250;-75
2022/09/08 08:01:09;;;;;;;;;3.00;3.00;;;;;20.02;63.72;100129.19;5029557;28;45505;-77
2022/09/08 08:03:40;;;;;;;;;2.25;2.25;;;;;20.22;63.39;100125.19;5036790;28;45526;-75
2022/09/08 08:06:15;;;;;;;;;2.25;2.25;;;;;20.59;61.66;100125.38;5018005;28;45498;-74
2022/09/08 08:08:52;;;;;;;;;4.00;2.00;;;;;20.83;60.60;100122.84;5036089;28;46240;-74
2022/09/08 08:11:26;;;;;;;;;4.25;3.50;;;;;20.98;59.99;100125.41;5036029;28;45379;-75
2022/09/08 08:14:15;;;;;;;;;3.00;2.00;;;;;21.03;59.67;100116.06;5018618;28;45375;-75
2022/09/08 08:16:48;;;;;;;;;2.00;2.00;;;;;21.24;59.37;100128.91;5036522;28;45364;-76
2022/09/08 08:19:23;;;;;;;;;3.50;2.50;;;;;21.16;59.14;100121.41;5036017;28;46140;-76
2022/09/08 08:22:02;;;;;;;;;4.50;2.50;;;;;21.03;59.29;100134.84;5036075;28;45331;-74
2022/09/08 08:25:00;;;;;;;;;5.00;4.00;;;;;20.80;59.26;100122.19;5036247;28;45387;-75
2022/09/08 08:27:43;;;;;;;;;2.75;2.00;;;;;20.76;59.70;100134.97;4991102;28;45612;-74
2022/09/08 08:30:21;;;;;;;;;2.00;2.00;;;;;20.92;59.69;100116.81;5036048;28;45420;-75
2022/09/08 08:32:53;;;;;;;;;2.50;2.00;;;;;21.10;58.78;100122.72;5035852;28;45600;-74
2022/09/08 08:35:27;;;;;;;;;4.75;3.00;;;;;21.41;57.91;100117.81;5017731;28;45411;-74
2022/09/08 08:37:54;;;;;;;;;3.00;3.00;;;;;21.81;57.08;100128.34;5035669;28;45551;-75
2022/09/08 08:40:44;;;;;;;;;4.00;1.00;;;;;21.93;56.52;100134.66;5035523;28;45472;-74
2022/09/08 08:43:28;;;;;;;;;1.75;1.75;;;;;21.65;57.09;100130.44;5035850;28;45445;-74
2022/09/08 08:46:18;;;;;;;;;2.00;1.00;;;;;21.56;56.93;100136.50;5017898;28;45415;-74
2022/09/08 08:49:13;;;;;;;;;7.50;3.25;;;;;21.57;57.61;100143.59;5035631;28;45581;-74
2022/09/08 08:52:10;;;;;;;;;4.00;3.00;;;;;21.62;56.78;100142.31;5035350;28;45549;-74
2022/09/08 08:54:44;;;;;;;;;4.75;3.75;;;;;21.53;57.20;100158.22;5035955;28;45307;-74
2022/09/08 08:57:22;;;;;;;;;3.50;2.50;;;;;21.53;56.90;100152.84;5035332;28;45610;-74
2022/09/08 09:00:06;;;;;;;;;2.50;2.50;;;;;21.53;56.87;100160.91;5035142;28;45412;-74
2022/09/08 09:02:36;;;;;;;;;3.25;3.25;;;;;21.40;57.57;100167.16;5035045;28;45981;-74
2022/09/08 09:05:20;;;;;;;;;5.25;2.00;;;;;21.32;57.60;100161.47;5015702;28;45429;-74
2022/09/08 09:08:47;;;;;;;;;3.00;2.50;;;;;21.20;57.92;100167.72;5015341;28;45435;-76
2022/09/08 09:11:15;;;;;;;;;2.75;2.75;;;;;21.10;58.36;100162.13;4898869;28;45430;-74
2022/09/08 09:14:11;;;;;;;;;2.50;2.50;;;;;21.07;58.34;100168.59;4916040;28;45562;-74
2022/09/08 09:16:36;;;;;;;;;2.00;2.00;;;;;20.91;59.12;100162.59;4915837;28;45573;-74
2022/09/08 09:19:36;;;;;;;;;2.00;2.00;;;;;20.70;59.04;100176.50;4907136;28;45468;-73
2022/09/08 09:22:23;;;;;;;;;2.00;2.00;;;;;20.56;59.88;100168.53;4896648;29;45568;-74
2022/09/08 09:25:06;;;;;;;;;3.50;3.25;;;;;20.52;61.28;100173.22;4896912;29;46266;-73
2022/09/08 09:27:41;;;;;;;;;3.00;1.50;;;;;20.54;61.02;100170.44;4895770;29;45455;-74
2022/09/08 09:30:18;;;;;;;;;3.75;3.00;;;;;20.53;60.67;100168.75;4896606;29;45479;-75
2022/09/08 09:33:19;;;;;;;;;5.25;4.00;;;;;20.56;60.87;100169.38;4895794;29;45403;-74
2022/09/08 09:35:52;;;;;;;;;2.25;2.25;;;;;20.57;60.75;100171.09;4895832;28;45597;-75
2022/09/08 09:38:51;;;;;;;;;3.50;2.75;;;;;20.69;60.77;100165.88;4896224;29;45473;-75
2022/09/08 09:41:36;;;;;;;;;7.75;3.00;;;;;20.90;60.31;100159.03;4916005;28;45423;-75
2022/09/08 09:44:41;;;;;;;;;6.75;2.50;;;;;21.12;59.39;100161.06;4953258;28;45457;-74
2022/09/08 09:47:56;;;;;;;;;2.00;2.00;;;;;21.40;58.25;100151.03;4952111;28;45414;-74
2022/09/08 09:51:00;;;;;;;;;2.00;2.00;;;;;21.58;58.49;100145.34;4953712;28;45506;-75
2022/09/08 09:53:31;;;;;;;;;3.00;2.25;;;;;21.72;57.13;100147.84;4937571;28;45626;-74
2022/09/08 09:56:22;;;;;;;;;3.25;2.75;;;;;21.59;56.77;100133.59;4953069;28;45536;-74
2022/09/08 09:58:47;;;;;;;;;3.00;2.75;;;;;21.67;57.01;100143.78;4937066;28;47326;-75
2022/09/08 10:01:47;;;;;;;;;2.00;2.00;;;;;21.74;57.01;100145.94;4953839;28;45498;-74
2022/09/08 10:04:55;;;;;;;;;5.25;3.25;;;;;21.99;56.38;100146.81;4953425;28;45457;-76
2022/09/08 10:07:23;;;;;;;;;2.50;2.25;;;;;22.17;56.42;100153.47;4953430;28;45578;-76
2022/09/08 10:10:12;;;;;;;;;2.50;2.50;;;;;22.48;55.07;100140.41;4952751;28;46507;-75
2022/09/08 10:13:06;;;;;;;;;3.00;3.00;;;;;22.90;54.66;100137.22;4952527;28;45695;-76
2022/09/08 10:15:35;;;;;;;;;2.50;2.50;;;;;23.37;52.78;100132.59;4953354;28;45537;-75
2022/09/08 10:18:16;;;;;;;;;3.25;2.00;;;;;23.41;52.82;100131.38;4936831;28;45498;-74
2022/09/08 10:21:00;;;;;;;;;3.25;3.25;;;;;23.47;52.74;100123.75;4952761;28;45482;-74
2022/09/08 10:23:34;;;;;;;;;3.00;3.00;;;;;23.47;53.29;100123.75;4953026;28;45590;-75
2022/09/08 10:26:24;;;;;;;;;2.00;2.00;;;;;23.56;53.95;100113.09;4952531;28;45433;-75
2022/09/08 10:28:58;;;;;;;;;2.00;2.00;;;;;23.55;53.16;100111.38;5034616;28;45637;-75
2022/09/08 10:31:47;;;;;;;;;3.75;2.50;;;;;23.52;53.33;100108.03;5015943;28;47316;-75
2022/09/08 10:34:36;;;;;;;;;2.00;2.00;;;;;23.32;52.94;100101.59;4951892;28;45623;-75
2022/09/08 10:37:06;;;;;;;;;3.00;2.00;;;;;23.42;52.64;100092.63;4952962;28;45461;-75
2022/09/08 10:40:16;;;;;;;;;4.25;2.25;;;;;23.66;52.73;100098.84;4952885;28;45498;-75
2022/09/08 10:42:47;;;;;;;;;3.00;3.00;;;;;24.11;50.84;100096.00;4937693;28;45688;-76
2022/09/08 10:45:51;;;;;;;;;2.75;2.75;;;;;24.74;49.02;100095.19;4952656;28;45537;-74
2022/09/08 10:49:10;;;;;;;;;3.00;2.00;;;;;24.67;47.72;100085.91;4941563;28;45651;-75
2022/09/08 10:51:36;;;;;;;;;1.75;1.75;;;;;25.35;47.90;100094.34;4894963;29;45564;-75
2022/09/08 10:54:19;;;;;;;;;1.75;1.00;;;;;25.61;45.96;100088.41;4894764;29;45572;-75
2022/09/08 10:56:47;;;;;;;;;1.00;1.00;;;;;26.26;44.64;100077.94;4895178;29;45527;-75
2022/09/08 10:59:45;;;;;;;;;2.00;2.00;;;;;27.08;44.04;100086.44;4895103;29;45423;-75
2022/09/08 11:02:33;;;;;;;;;2.75;2.00;;;;;27.22;42.00;100085.94;4895073;29;45603;-75
2022/09/08 11:05:22;;;;;;;;;1.00;1.00;;;;;27.87;41.24;100081.44;4875958;29;45558;-76
2022/09/08 11:08:00;;;;;;;;;3.00;3.00;;;;;27.81;40.93;100075.59;4876919;29;45599;-76
2022/09/08 11:10:56;;;;;;;;;2.25;2.25;;;;;27.94;40.19;100086.09;4887626;28;45380;-77
2022/09/08 11:13:25;;;;;;;;;1.00;1.00;;;;;28.22;39.92;100080.59;4952416;28;45414;-74
2022/09/08 11:16:26;;;;;;;;;1.25;0.50;;;;;28.72;38.05;100076.38;4953432;28;46018;-76
2022/09/08 11:18:51;;;;;;;;;1.25;1.25;;;;;28.70;38.38;100076.56;4952508;28;45368;-76
2022/09/08 11:21:30;;;;;;;;;1.25;1.25;;;;;28.77;38.53;100067.75;4952317;28;45669;-76
2022/09/08 11:24:17;;;;;;;;;2.00;1.00;;;;;28.74;38.80;100087.94;4955189;28;45436;-75
2022/09/08 11:27:05;;;;;;;;;2.00;2.00;;;;;28.63;39.36;100090.94;5014108;28;45585;-75
2022/09/08 11:29:38;;;;;;;;;2.25;1.00;;;;;28.28;38.33;100087.25;5017222;28;45450;-76
2022/09/08 11:32:32;;;;;;;;;2.25;1.00;;;;;27.73;39.63;100089.09;5017771;28;45512;-76
2022/09/08 11:35:16;;;;;;;;;2.00;2.00;;;;;27.24;40.61;100096.63;5019098;28;45386;-76
2022/09/08 11:38:02;;;;;;;;;2.00;2.00;;;;;26.61;41.46;100098.13;5017500;28;46261;-76
2022/09/08 11:40:39;;;;;;;;;2.50;2.00;;;;;26.31;42.65;100097.28;5016829;28;45349;-76
2022/09/08 11:43:22;;;;;;;;;3.00;1.00;;;;;26.45;41.98;100098.72;5017561;28;45420;-73
2022/09/08 11:46:00;;;;;;;;;3.00;2.75;;;;;26.45;41.91;100092.44;5017946;28;45468;-76
2022/09/08 11:48:41;;;;;;;;;2.75;1.00;;;;;26.47;41.81;100090.47;5021629;28;46401;-75
2022/09/08 11:51:44;;;;;;;;;1.00;1.00;;;;;26.89;41.41;100090.06;5036576;28;45482;-77
2022/09/08 11:54:25;;;;;;;;;1.00;1.00;;;;;27.45;40.23;100093.69;5036832;28;45384;-76
2022/09/08 11:57:05;;;;;;;;;1.00;1.00;;;;;28.01;40.16;100072.75;5036873;28;45490;-75
2022/09/08 12:00:08;;;;;;;;;1.50;1.50;;;;;28.76;37.99;100079.63;5036260;28;46109;-75
2022/09/08 12:03:10;;;;;;;;;1.00;0.00;;;;;28.51;38.13;100072.16;5036054;28;45450;-74